createdAt,value
2022-11-02T00:02:12.393Z,73.25
2022-11-02T00:04:41.860Z,73.30
2022-11-02T00:07:08.355Z,73.55
2022-11-02T00:09:35.160Z,73.19
2022-11-02T00:12:01.822Z,73.07
2022-11-02T00:14:30.980Z,73.23
2022-11-02T00:16:57.657Z,73.99
2022-11-02T00:19:24.297Z,74.33
2022-11-02T00:21:51.030Z,74.17
2022-11-02T00:24:20.170Z,74.13
2022-11-02T00:26:47.232Z,74.26
2022-11-02T00:29:13.886Z,74.65
2022-11-02T00:31:47.793Z,74.67
2022-11-02T00:34:14.451Z,74.45
2022-11-02T00:36:41.178Z,74.16
2022-11-02T00:39:07.854Z,74.14
2022-11-02T00:41:34.562Z,73.94
2022-11-02T00:44:03.874Z,73.80
2022-11-02T00:46:30.495Z,74.07
2022-11-02T00:48:57.198Z,73.57
2022-11-02T00:51:28.705Z,73.77
2022-11-02T00:53:58.005Z,73.63
2022-11-02T00:56:24.818Z,73.70
2022-11-02T00:58:54.781Z,73.67
2022-11-02T01:01:21.581Z,73.55
2022-11-02T01:03:48.366Z,73.65
2022-11-02T01:06:18.259Z,73.60
2022-11-02T01:08:47.531Z,73.57
2022-11-02T01:11:17.077Z,73.34
2022-11-02T01:13:46.363Z,73.41
2022-11-02T01:16:17.795Z,73.57
2022-11-02T01:18:44.937Z,73.36
2022-11-02T01:21:17.412Z,73.30
2022-11-02T01:23:44.208Z,73.12
2022-11-02T01:26:11.879Z,73.40
2022-11-02T01:28:42.454Z,73.43
2022-11-02T01:31:12.982Z,73.29
2022-11-02T01:33:44.996Z,73.37
2022-11-02T01:36:12.519Z,73.37
2022-11-02T01:38:41.907Z,73.15
2022-11-02T01:41:08.566Z,73.41
2022-11-02T01:43:36.834Z,73.21
2022-11-02T01:46:11.759Z,73.18
2022-11-02T01:48:50.521Z,72.92
2022-11-02T01:51:31.692Z,72.70
2022-11-02T01:54:03.162Z,72.44
2022-11-02T01:56:31.959Z,72.36
2022-11-02T01:59:01.853Z,72.69
2022-11-02T02:01:33.235Z,72.76
2022-11-02T02:04:00.046Z,72.29
2022-11-02T02:06:34.186Z,72.34
2022-11-02T02:09:05.281Z,72.40
2022-11-02T02:11:34.051Z,72.00
2022-11-02T02:14:08.370Z,71.98
2022-11-02T02:16:59.582Z,71.93
2022-11-02T02:19:39.144Z,71.70
2022-11-02T02:22:24.662Z,71.63
2022-11-02T02:25:09.947Z,71.70
2022-11-02T02:28:04.797Z,71.65
2022-11-02T02:30:38.957Z,71.74
2022-11-02T02:33:12.294Z,71.49
2022-11-02T02:35:58.976Z,71.41
2022-11-02T02:38:34.461Z,71.42
2022-11-02T02:41:28.425Z,71.25
2022-11-02T02:43:56.291Z,71.25
2022-11-02T02:46:42.640Z,71.16
2022-11-02T02:49:11.816Z,71.33
2022-11-02T02:51:44.814Z,71.31
2022-11-02T02:54:15.466Z,71.25
2022-11-02T02:56:51.106Z,70.99
2022-11-02T02:59:25.820Z,71.07
2022-11-02T03:01:53.137Z,71.12
2022-11-02T03:04:22.044Z,71.03
2022-11-02T03:06:55.021Z,70.90
2022-11-02T03:09:37.949Z,70.85
2022-11-02T03:12:26.867Z,70.69
2022-11-02T03:15:14.767Z,70.67
2022-11-02T03:18:25.490Z,70.64
2022-11-02T03:20:58.987Z,70.76
2022-11-02T03:23:44.534Z,70.90
2022-11-02T03:26:18.828Z,70.76
2022-11-02T03:28:59.588Z,70.60
2022-11-02T03:31:42.075Z,71.10
2022-11-02T03:34:12.714Z,71.17
2022-11-02T03:36:46.722Z,71.53
2022-11-02T03:39:16.079Z,71.45
2022-11-02T03:41:48.607Z,71.40
2022-11-02T03:44:21.712Z,71.64
2022-11-02T03:46:55.174Z,71.34
2022-11-02T03:49:22.750Z,71.47
2022-11-02T03:51:52.728Z,71.63
2022-11-02T03:54:47.663Z,71.39
2022-11-02T03:57:23.658Z,71.39
2022-11-02T03:59:53.185Z,71.44
2022-11-02T04:02:20.222Z,71.58
2022-11-02T04:04:52.298Z,71.77
2022-11-02T04:07:29.260Z,71.65
2022-11-02T04:09:58.978Z,71.77
2022-11-02T04:12:46.414Z,71.71
2022-11-02T04:15:18.623Z,72.05
2022-11-02T04:18:14.880Z,72.00
2022-11-02T04:20:44.868Z,72.33
2022-11-02T04:23:33.274Z,72.36
2022-11-02T04:26:01.105Z,72.80
2022-11-02T04:28:35.688Z,72.59
2022-11-02T04:31:04.688Z,72.63
2022-11-02T04:33:40.770Z,72.94
2022-11-02T04:36:15.806Z,73.59
2022-11-02T04:38:47.080Z,74.29
2022-11-02T04:41:44.220Z,74.58
2022-11-02T04:44:35.781Z,75.07
2022-11-02T04:47:06.208Z,75.27
2022-11-02T04:49:36.026Z,75.34
2022-11-02T04:52:07.154Z,75.14
2022-11-02T04:54:43.450Z,75.00
2022-11-02T04:57:13.248Z,74.73
2022-11-02T04:59:44.151Z,74.50
2022-11-02T05:02:13.708Z,74.35
2022-11-02T05:04:45.583Z,74.13
2022-11-02T05:07:13.571Z,74.22
2022-11-02T05:09:44.584Z,73.77
2022-11-02T05:12:16.054Z,73.46
2022-11-02T05:14:45.413Z,73.37
2022-11-02T05:17:13.377Z,73.10
2022-11-02T05:19:41.805Z,73.12
2022-11-02T05:22:11.478Z,72.92
2022-11-02T05:24:38.332Z,73.05
2022-11-02T05:27:07.004Z,72.82
2022-11-02T05:29:36.423Z,72.75
2022-11-02T05:32:03.868Z,72.93
2022-11-02T05:34:31.061Z,72.67
2022-11-02T05:36:59.349Z,73.23
2022-11-02T05:39:26.042Z,73.51
2022-11-02T05:41:53.158Z,73.45
2022-11-02T05:44:22.117Z,74.90
2022-11-02T05:46:48.869Z,75.08
2022-11-02T05:49:18.072Z,75.75
2022-11-02T05:51:44.801Z,75.82
2022-11-02T05:54:11.468Z,76.00
2022-11-02T05:56:40.649Z,76.86
2022-11-02T05:59:10.169Z,77.44
2022-11-02T06:01:36.933Z,77.51
2022-11-02T06:04:06.211Z,77.50
2022-11-02T06:06:37.819Z,77.20
2022-11-02T06:09:07.331Z,77.15
2022-11-02T06:11:34.354Z,76.38
2022-11-02T06:14:05.934Z,76.11
2022-11-02T06:16:32.554Z,75.90
2022-11-02T06:18:59.338Z,75.54
2022-11-02T06:21:26.313Z,75.22
2022-11-02T06:23:55.002Z,74.74
2022-11-02T06:26:24.364Z,74.75
2022-11-02T06:28:51.210Z,74.54
2022-11-02T06:31:17.867Z,74.33
2022-11-02T06:33:47.745Z,74.49
2022-11-02T06:36:14.496Z,74.64
2022-11-02T06:38:46.169Z,74.48
2022-11-02T06:41:15.097Z,74.18
2022-11-02T06:43:44.121Z,73.88
2022-11-02T06:46:10.936Z,73.37
2022-11-02T06:48:40.077Z,73.41
2022-11-02T06:51:11.567Z,73.14
2022-11-02T06:53:40.583Z,73.20
2022-11-02T06:56:07.620Z,72.54
2022-11-02T06:58:36.425Z,72.30
2022-11-02T07:01:07.353Z,72.06
2022-11-02T07:03:37.339Z,71.96
2022-11-02T07:06:13.665Z,71.63
2022-11-02T07:08:43.578Z,71.54
2022-11-02T07:11:12.951Z,71.10
2022-11-02T07:13:44.488Z,71.06
2022-11-02T07:16:13.548Z,71.74
2022-11-02T07:18:43.094Z,71.49
2022-11-02T07:21:12.318Z,71.65
2022-11-02T07:23:39.321Z,71.53
2022-11-02T07:26:08.592Z,71.15
2022-11-02T07:28:38.159Z,72.01
2022-11-02T07:31:05.507Z,72.60
2022-11-02T07:33:32.470Z,72.10
2022-11-02T07:36:03.149Z,72.25
2022-11-02T07:38:32.192Z,72.06
2022-11-02T07:41:01.366Z,71.68
2022-11-02T07:43:31.193Z,71.59
2022-11-02T07:46:06.409Z,71.42
2022-11-02T07:48:35.953Z,71.06
2022-11-02T07:51:02.679Z,70.51
2022-11-02T07:53:31.693Z,71.20
2022-11-02T07:56:00.558Z,71.22
2022-11-02T07:58:27.626Z,71.43
2022-11-02T08:01:03.651Z,71.18
2022-11-02T08:03:32.730Z,70.57
2022-11-02T08:06:04.866Z,71.64
2022-11-02T08:08:36.862Z,71.87
2022-11-02T08:11:06.281Z,70.44
2022-11-02T08:13:33.075Z,70.45
2022-11-02T08:16:04.539Z,70.91
2022-11-02T08:18:31.999Z,69.55
2022-11-02T08:20:59.787Z,69.51
2022-11-02T08:23:27.097Z,69.38
2022-11-02T08:25:58.980Z,69.53
2022-11-02T08:28:36.031Z,69.22
2022-11-02T08:31:06.972Z,69.08
2022-11-02T08:33:33.779Z,69.07
2022-11-02T08:36:15.986Z,67.90
2022-11-02T08:38:44.931Z,67.36
2022-11-02T08:41:14.696Z,66.45
2022-11-02T08:43:41.570Z,65.98
2022-11-02T08:46:15.683Z,66.15
2022-11-02T08:48:46.284Z,66.03
2022-11-02T08:51:15.735Z,66.04
2022-11-02T08:53:51.260Z,65.54
2022-11-02T08:56:18.302Z,66.05
2022-11-02T08:58:47.426Z,65.51
2022-11-02T09:01:17.239Z,65.30
2022-11-02T09:03:46.109Z,64.91
2022-11-02T09:06:12.792Z,64.74
2022-11-02T09:08:39.502Z,64.04
2022-11-02T09:11:08.986Z,63.50
2022-11-02T09:13:38.139Z,61.82
2022-11-02T09:16:04.959Z,61.94
2022-11-02T09:18:33.911Z,61.27
2022-11-02T09:21:04.984Z,60.36
2022-11-02T09:23:32.101Z,61.28
2022-11-02T09:26:00.097Z,60.90
2022-11-02T09:28:26.883Z,61.22
2022-11-02T09:30:53.605Z,61.41
2022-11-02T09:33:20.483Z,61.25
2022-11-02T09:35:49.872Z,60.97
2022-11-02T09:38:20.414Z,60.68
2022-11-02T09:40:56.096Z,60.06
2022-11-02T09:43:33.044Z,60.48
2022-11-02T09:46:17.470Z,59.76
2022-11-02T09:49:13.278Z,59.43
2022-11-02T09:52:00.324Z,60.41
2022-11-02T09:54:52.252Z,60.98
2022-11-02T09:57:29.161Z,60.99
2022-11-02T09:59:56.737Z,61.09
2022-11-02T10:02:59.973Z,60.91
2022-11-02T10:05:41.311Z,59.71
2022-11-02T10:08:29.962Z,59.96
2022-11-02T10:11:07.688Z,58.88
2022-11-02T10:13:41.364Z,59.29
2022-11-02T10:16:15.392Z,58.48
2022-11-02T10:18:42.833Z,55.83
2022-11-02T10:21:14.560Z,55.64
2022-11-02T10:23:45.449Z,55.20
2022-11-02T10:26:24.868Z,55.32
2022-11-02T10:29:02.127Z,57.12
2022-11-02T10:31:34.240Z,57.77
2022-11-02T10:34:29.131Z,57.78
2022-11-02T10:37:32.456Z,55.71
2022-11-02T10:40:16.643Z,54.95
2022-11-02T10:43:11.268Z,53.43
2022-11-02T10:45:49.663Z,52.65
2022-11-02T10:48:19.031Z,51.79
2022-11-02T10:50:54.979Z,51.64
2022-11-02T10:53:40.634Z,50.18
2022-11-02T10:56:21.047Z,52.37
2022-11-02T10:58:58.731Z,50.83
2022-11-02T11:01:32.109Z,51.56
2022-11-02T11:04:02.125Z,51.00
2022-11-02T11:06:31.909Z,50.07
2022-11-02T11:09:20.052Z,49.08
2022-11-02T11:11:58.986Z,47.33
2022-11-02T11:20:35.214Z,49.46
2022-11-02T11:23:08.483Z,50.02
2022-11-02T11:25:37.578Z,50.42
2022-11-02T11:28:13.729Z,49.76
2022-11-02T11:30:58.835Z,50.05
2022-11-02T11:33:26.047Z,50.77
2022-11-02T11:35:52.931Z,51.59
2022-11-02T11:38:38.938Z,51.65
2022-11-02T11:41:22.233Z,52.69
2022-11-02T11:44:13.548Z,52.82
2022-11-02T11:46:43.825Z,53.30
2022-11-02T11:49:36.069Z,54.03
2022-11-02T11:52:19.921Z,54.17
2022-11-02T11:54:53.316Z,54.81
2022-11-02T11:57:31.739Z,54.03
2022-11-02T12:00:01.789Z,52.66
2022-11-02T12:02:43.885Z,50.54
2022-11-02T12:05:20.838Z,49.01
2022-11-02T12:08:05.951Z,47.12
2022-11-02T12:11:09.185Z,45.52
2022-11-02T12:13:42.219Z,47.57
2022-11-02T12:16:33.777Z,46.92
2022-11-02T12:19:00.489Z,46.94
2022-11-02T12:22:09.319Z,45.63
2022-11-02T12:24:42.020Z,46.37
2022-11-02T12:27:34.453Z,46.27
2022-11-02T12:30:07.384Z,45.98
2022-11-02T12:33:00.512Z,45.78
2022-11-02T12:35:50.898Z,45.88
2022-11-02T12:38:32.432Z,46.33
2022-11-02T12:41:05.203Z,46.21
2022-11-02T12:43:40.174Z,46.67
2022-11-02T12:46:09.398Z,46.03
2022-11-02T12:48:39.062Z,46.78
2022-11-02T12:51:15.259Z,47.05
2022-11-02T12:53:45.283Z,47.57
2022-11-02T12:56:21.326Z,47.37
2022-11-02T12:58:52.635Z,47.09
2022-11-02T13:01:26.028Z,47.15
2022-11-02T13:04:10.945Z,46.37
2022-11-02T13:06:43.854Z,47.00
2022-11-02T13:09:21.764Z,47.19
2022-11-02T13:12:13.471Z,47.42
2022-11-02T13:14:44.942Z,47.09
2022-11-02T13:17:37.427Z,45.77
2022-11-02T13:20:07.862Z,44.61
2022-11-02T13:22:35.928Z,43.34
2022-11-02T13:25:14.469Z,42.21
2022-11-02T13:28:09.092Z,40.56
2022-11-02T13:30:42.483Z,40.21
2022-11-02T13:33:23.927Z,39.71
2022-11-02T13:35:51.730Z,38.78
2022-11-02T13:38:27.180Z,38.51
2022-11-02T13:41:09.202Z,36.93
2022-11-02T13:43:41.893Z,37.79
2022-11-02T13:46:39.470Z,37.80
2022-11-02T13:49:15.856Z,37.88
2022-11-02T13:51:49.346Z,36.38
2022-11-02T13:54:21.379Z,36.34
2022-11-02T13:56:56.670Z,31.76
2022-11-02T13:59:32.207Z,33.69
2022-11-02T14:02:06.255Z,33.94
2022-11-02T14:04:40.655Z,32.04
2022-11-02T14:07:26.383Z,32.80
2022-11-02T14:09:58.749Z,34.15
2022-11-02T14:12:28.163Z,33.13
2022-11-02T14:15:13.287Z,32.38
2022-11-02T14:18:04.167Z,33.76
2022-11-02T14:20:31.198Z,35.17
2022-11-02T14:23:18.693Z,35.92
2022-11-02T14:25:45.801Z,37.51
2022-11-02T14:28:25.733Z,38.79
2022-11-02T14:31:04.661Z,39.81
2022-11-02T14:33:55.679Z,40.70
2022-11-02T14:36:43.761Z,41.66
2022-11-02T14:39:54.937Z,42.78
2022-11-02T14:42:28.994Z,43.64
2022-11-02T14:45:19.520Z,43.86
2022-11-02T14:47:46.287Z,44.70
2022-11-02T14:50:14.845Z,44.92
2022-11-02T14:52:45.764Z,45.19
2022-11-02T14:55:18.755Z,46.04
2022-11-02T14:58:10.826Z,46.44
2022-11-02T15:00:47.424Z,46.60
2022-11-02T15:03:27.463Z,47.46
2022-11-02T15:06:29.427Z,47.38
2022-11-02T15:09:00.021Z,46.99
2022-11-02T15:11:42.273Z,48.14
2022-11-02T15:14:43.006Z,48.04
2022-11-02T15:17:12.775Z,48.05
2022-11-02T15:19:46.221Z,48.48
2022-11-02T15:22:45.874Z,49.50
2022-11-02T15:25:20.958Z,49.35
2022-11-02T15:27:48.943Z,49.16
2022-11-02T15:30:28.100Z,49.60
2022-11-02T15:33:05.058Z,49.87
2022-11-02T15:35:34.920Z,51.26
2022-11-02T15:38:17.419Z,51.01
2022-11-02T15:40:56.639Z,51.66
2022-11-02T15:44:05.179Z,52.59
2022-11-02T15:46:41.150Z,51.51
2022-11-02T15:49:43.493Z,52.75
2022-11-02T15:52:35.393Z,52.78
2022-11-02T15:55:11.321Z,53.45
2022-11-02T15:58:02.803Z,54.04
2022-11-02T16:00:32.705Z,54.07
2022-11-02T16:03:04.787Z,53.42
2022-11-02T16:05:34.206Z,53.93
2022-11-02T16:08:20.812Z,53.98
2022-11-02T16:10:49.905Z,55.27
2022-11-02T16:13:20.869Z,55.48
2022-11-02T16:15:53.342Z,54.61
2022-11-02T16:18:37.029Z,55.14
2022-11-02T16:21:06.346Z,55.02
2022-11-02T16:23:38.332Z,54.60
2022-11-02T16:26:13.001Z,54.59
2022-11-02T16:28:39.820Z,54.90
2022-11-02T16:31:18.070Z,54.72
2022-11-02T16:33:47.310Z,55.25
2022-11-02T16:36:26.320Z,55.88
2022-11-02T16:38:57.178Z,55.39
2022-11-02T16:41:26.418Z,55.42
2022-11-02T16:43:55.322Z,56.28
2022-11-02T16:46:31.922Z,55.93
2022-11-02T16:49:12.853Z,55.78
2022-11-02T16:51:39.776Z,56.38
2022-11-02T16:54:28.694Z,56.23
2022-11-02T16:57:12.195Z,56.34
2022-11-02T16:59:53.696Z,56.31
2022-11-02T17:02:37.395Z,56.45
2022-11-02T17:05:27.565Z,56.54
2022-11-02T17:08:00.320Z,57.41
2022-11-02T17:10:30.727Z,57.19
2022-11-02T17:13:03.121Z,58.45
2022-11-02T17:15:32.292Z,59.82
2022-11-02T17:18:08.532Z,58.67
2022-11-02T17:20:39.111Z,58.60
2022-11-02T17:23:29.101Z,58.90
2022-11-02T17:26:27.715Z,59.13
2022-11-02T17:29:00.576Z,59.03
2022-11-02T17:31:41.325Z,59.84
2022-11-02T17:34:19.376Z,59.42
2022-11-02T17:36:52.240Z,59.60
2022-11-02T17:39:20.408Z,60.05
2022-11-02T17:42:13.507Z,60.34
2022-11-02T17:44:41.448Z,60.13
2022-11-02T17:47:12.715Z,60.25
2022-11-02T17:49:41.706Z,60.82
2022-11-02T17:52:12.012Z,60.87
2022-11-02T17:54:38.783Z,60.89
2022-11-02T17:57:15.012Z,60.47
2022-11-02T17:59:41.811Z,61.16
2022-11-02T18:02:16.285Z,61.50
2022-11-02T18:04:45.427Z,61.56
2022-11-02T18:07:12.387Z,62.01
2022-11-02T18:09:41.616Z,62.06
2022-11-02T18:12:18.392Z,61.88
2022-11-02T18:14:45.782Z,62.20
2022-11-02T18:17:16.938Z,62.25
2022-11-02T18:19:43.688Z,62.67
2022-11-02T18:22:12.191Z,62.22
2022-11-02T18:24:40.996Z,62.93
2022-11-02T18:27:07.701Z,62.49
2022-11-02T18:29:36.721Z,62.56
2022-11-02T18:32:06.148Z,62.45
2022-11-02T18:34:37.527Z,62.52
2022-11-02T18:37:04.254Z,62.33
2022-11-02T18:39:36.507Z,62.55
2022-11-02T18:42:05.301Z,62.57
2022-11-02T18:44:34.210Z,62.36
2022-11-02T18:47:04.039Z,62.69
2022-11-02T18:49:30.746Z,62.75
2022-11-02T18:51:57.527Z,62.55
2022-11-02T18:54:27.140Z,62.68
2022-11-02T18:56:54.005Z,62.65
2022-11-02T18:59:23.146Z,62.55
2022-11-02T19:01:53.684Z,62.44
2022-11-02T19:04:22.930Z,62.32
2022-11-02T19:07:16.152Z,62.49
2022-11-02T19:09:43.501Z,62.63
2022-11-02T19:12:15.342Z,62.27
2022-11-02T19:14:44.030Z,62.54
2022-11-02T19:17:16.675Z,62.43
2022-11-02T19:19:46.743Z,62.43
2022-11-02T19:22:24.390Z,62.21
2022-11-02T19:24:54.243Z,62.44
2022-11-02T19:27:25.284Z,61.81
2022-11-02T19:29:52.206Z,61.87
2022-11-02T19:32:21.403Z,61.76
2022-11-02T19:34:51.373Z,61.41
2022-11-02T19:37:18.169Z,61.57
2022-11-02T19:39:47.133Z,61.45
2022-11-02T19:42:13.825Z,61.47
2022-11-02T19:44:46.383Z,61.75
2022-11-02T19:47:17.488Z,61.49
2022-11-02T19:49:46.739Z,61.78
2022-11-02T19:52:15.740Z,62.01
2022-11-02T19:54:44.668Z,61.92
2022-11-02T19:57:14.509Z,62.08
2022-11-02T19:59:41.259Z,61.83
2022-11-02T20:02:12.362Z,61.82
2022-11-02T20:04:42.336Z,61.87
2022-11-02T20:07:11.547Z,61.83
2022-11-02T20:09:43.195Z,62.09
2022-11-02T20:12:09.947Z,62.13
2022-11-02T20:14:38.311Z,61.99
2022-11-02T20:19:54.012Z,62.02
2022-11-02T20:22:20.782Z,62.19
2022-11-02T20:24:47.511Z,62.35
2022-11-02T20:27:14.241Z,62.50
2022-11-02T20:29:40.905Z,62.26
2022-11-02T20:32:10.339Z,62.25
2022-11-02T20:34:37.167Z,62.50
2022-11-02T20:37:05.196Z,62.75
2022-11-02T20:39:31.948Z,62.72
2022-11-02T20:41:58.809Z,62.73
2022-11-02T20:44:27.995Z,62.76
2022-11-02T20:46:54.680Z,62.96
2022-11-02T20:49:44.311Z,63.05
2022-11-02T20:52:11.619Z,63.32
2022-11-02T20:54:38.348Z,63.32
2022-11-02T20:57:05.494Z,63.17
2022-11-02T20:59:34.431Z,63.35
2022-11-02T21:02:01.245Z,63.17
2022-11-02T21:04:28.096Z,63.33
2022-11-02T21:06:57.109Z,63.59
2022-11-02T21:09:26.555Z,63.72
2022-11-02T21:12:11.774Z,63.76
2022-11-02T21:14:40.520Z,63.87
2022-11-02T21:17:07.262Z,64.22
2022-11-02T21:19:37.171Z,64.10
2022-11-02T21:22:06.089Z,64.06
2022-11-02T21:24:35.306Z,63.78
2022-11-02T21:27:07.033Z,63.85
2022-11-02T21:29:33.743Z,64.11
2022-11-02T21:32:00.780Z,63.94
2022-11-02T21:34:29.572Z,63.88
2022-11-02T21:36:56.413Z,63.98
2022-11-02T21:39:33.761Z,63.82
2022-11-02T21:42:03.993Z,64.05
2022-11-02T21:44:30.771Z,63.80
2022-11-02T21:46:57.557Z,63.84
2022-11-02T21:49:26.443Z,63.77
2022-11-02T21:51:53.208Z,63.77
2022-11-02T21:54:19.912Z,63.72
2022-11-02T21:56:51.631Z,63.99
2022-11-02T21:59:23.066Z,64.34
2022-11-02T22:01:52.756Z,64.52
2022-11-02T22:04:31.935Z,64.19
2022-11-02T22:06:59.818Z,64.29
2022-11-02T22:09:28.215Z,64.28
2022-11-02T22:12:14.392Z,64.29
2022-11-02T22:14:44.730Z,64.54
2022-11-02T22:17:22.137Z,64.15
2022-11-02T22:19:58.830Z,64.00
2022-11-02T22:22:28.396Z,64.08
2022-11-02T22:24:55.082Z,64.35
2022-11-02T22:27:21.814Z,64.00
2022-11-02T22:29:50.903Z,64.05
2022-11-02T22:32:17.606Z,64.05
2022-11-02T22:34:46.947Z,63.59
2022-11-02T22:37:34.902Z,63.86
2022-11-02T22:40:04.060Z,63.68
2022-11-02T22:42:35.821Z,63.80
2022-11-02T22:45:09.065Z,64.00
2022-11-02T22:47:38.007Z,63.95
2022-11-02T22:50:05.196Z,63.88
2022-11-02T22:52:34.478Z,63.94
2022-11-02T22:55:01.105Z,63.61
2022-11-02T22:57:32.460Z,63.49
2022-11-02T22:59:59.116Z,63.37
2022-11-02T23:02:26.067Z,63.54
2022-11-02T23:04:52.771Z,63.39
2022-11-02T23:07:24.273Z,63.25
2022-11-02T23:09:55.472Z,63.27
2022-11-02T23:12:22.113Z,63.38
2022-11-02T23:14:48.889Z,63.74
2022-11-02T23:17:15.578Z,63.77
2022-11-02T23:19:43.047Z,63.93
2022-11-02T23:22:30.711Z,63.92
2022-11-02T23:25:12.607Z,64.43
2022-11-02T23:28:06.671Z,64.83
2022-11-02T23:30:55.762Z,64.96
2022-11-02T23:33:24.106Z,65.21
2022-11-02T23:36:09.479Z,65.13
2022-11-02T23:39:01.369Z,65.20
2022-11-02T23:41:32.051Z,65.35
2022-11-02T23:44:16.383Z,65.59
2022-11-02T23:46:51.457Z,65.80
2022-11-02T23:49:18.575Z,66.19
2022-11-02T23:52:03.704Z,66.12
2022-11-02T23:54:48.882Z,66.12
2022-11-02T23:57:15.678Z,66.63
2022-11-02T23:59:42.771Z,67.10
